Time;durP1;ratioP1;P1;durP2;ratioP2;P2;SDS_P1;SDS_P2;PMS_P1;PMS_P2;Temp;Humidity;BMP_temperature;BMP_pressure;BME280_temperature;BME280_humidity;BME280_pressure;Samples;Min_cycle;Max_cycle;Signal;HPM_P1;HPM_P2
2021/01/06 00:01:07;;;;;;;12.15;8.53;;;;;;;-0.40;89.46;99631.94;2121421;82;21150;-71
2021/01/06 00:04:08;;;;;;;10.80;8.00;;;;;;;-0.41;89.43;99636.80;2117366;82;21101;-73
2021/01/06 00:07:10;;;;;;;15.60;9.55;;;;;;;-0.40;89.47;99641.06;2122484;82;21086;-72
2021/01/06 00:10:15;;;;;;;17.17;10.32;;;;;;;-0.35;89.55;99636.84;2119985;82;21508;-73
2021/01/06 00:13:20;;;;;;;15.83;10.65;;;;;;;-0.32;89.54;99640.53;2121453;82;21131;-71
2021/01/06 00:16:21;;;;;;;13.53;9.50;;;;;;;-0.30;89.59;99647.78;2120368;82;21120;-70
2021/01/06 00:19:23;;;;;;;20.70;12.80;;;;;;;-0.25;89.59;99641.30;2121877;82;21553;-77
2021/01/06 00:22:25;;;;;;;19.10;11.75;;;;;;;-0.22;89.53;99640.72;2121097;82;21078;-75
2021/01/06 00:25:34;;;;;;;15.53;10.43;;;;;;;-0.21;89.49;99644.51;2125374;81;21482;-79
2021/01/06 00:28:35;;;;;;;14.25;9.68;;;;;;;-0.19;89.50;99640.02;2145746;81;21100;-71
2021/01/06 00:31:42;;;;;;;16.57;9.83;;;;;;;-0.14;89.46;99648.36;2146848;81;21152;-71
2021/01/06 00:34:43;;;;;;;15.23;10.38;;;;;;;-0.13;89.46;99648.70;2146654;81;21196;-72
2021/01/06 00:37:45;;;;;;;17.75;10.82;;;;;;;-0.12;89.42;99650.36;2147801;81;21187;-73
2021/01/06 00:40:47;;;;;;;16.10;10.60;;;;;;;-0.12;89.41;99652.97;2141778;81;21534;-71
2021/01/06 00:43:52;;;;;;;17.37;10.55;;;;;;;-0.12;89.37;99652.97;2147616;81;21552;-78
2021/01/06 00:46:52;;;;;;;17.27;10.82;;;;;;;-0.13;89.31;99657.83;2146577;81;21603;-81
2021/01/06 00:49:54;;;;;;;17.80;11.68;;;;;;;-0.13;89.37;99655.70;2145135;81;21175;-73
2021/01/06 00:53:08;;;;;;;19.30;12.15;;;;;;;-0.12;89.33;99654.75;2144430;81;21591;-71
2021/01/06 00:56:10;;;;;;;20.62;12.43;;;;;;;-0.12;89.34;99658.19;2147888;81;21120;-80
2021/01/06 00:59:11;;;;;;;22.25;13.78;;;;;;;-0.10;89.34;99663.30;2148616;81;21238;-71
2021/01/06 01:02:14;;;;;;;20.85;13.08;;;;;;;-0.08;89.38;99658.34;2146205;81;21524;-84
2021/01/06 01:05:21;;;;;;;20.77;11.63;;;;;;;-0.14;89.30;99654.88;2145228;81;21614;-83
2021/01/06 01:08:23;;;;;;;17.73;11.35;;;;;;;-0.14;89.28;99658.79;2147146;81;21171;-71
2021/01/06 01:11:26;;;;;;;16.93;10.30;;;;;;;-0.17;89.27;99664.67;2147708;81;21575;-71
2021/01/06 01:14:27;;;;;;;19.35;11.43;;;;;;;-0.18;89.31;99666.93;2148006;81;21580;-74
2021/01/06 01:17:28;;;;;;;17.57;11.28;;;;;;;-0.15;89.35;99669.31;2147010;81;21134;-71
2021/01/06 01:20:30;;;;;;;16.12;10.80;;;;;;;-0.12;89.39;99672.53;2141550;81;21149;-71
2021/01/06 01:23:31;;;;;;;19.05;10.88;;;;;;;-0.07;89.39;99670.91;2143844;81;21120;-76
2021/01/06 01:26:33;;;;;;;21.68;11.78;;;;;;;0.00;89.43;99676.06;2089849;82;21889;-79
2021/01/06 01:29:34;;;;;;;19.80;11.85;;;;;;;0.03;89.34;99672.38;2074070;84;21615;-71
2021/01/06 01:32:36;;;;;;;17.57;11.60;;;;;;;0.03;89.25;99663.23;2074532;84;21479;-78
2021/01/06 01:35:38;;;;;;;18.02;11.63;;;;;;;0.01;89.19;99668.59;2073875;84;21094;-71
2021/01/06 01:38:40;;;;;;;19.27;11.78;;;;;;;0.01;89.18;99671.67;2074735;84;21153;-71
2021/01/06 01:41:42;;;;;;;16.12;11.33;;;;;;;-0.03;89.13;99674.50;2079740;84;21128;-80
2021/01/06 01:44:57;;;;;;;16.87;10.58;;;;;;;-0.04;89.13;99672.81;2075885;84;21137;-84
2021/01/06 01:48:07;;;;;;;16.67;10.10;;;;;;;-0.03;89.21;99670.59;2076102;84;21141;-75
2021/01/06 01:51:39;;;;;;;18.57;10.23;;;;;;;-0.03;89.15;99665.37;2077539;84;21522;-71
2021/01/06 01:54:41;;;;;;;18.50;10.88;;;;;;;-0.03;89.14;99661.91;2077884;84;21102;-71
2021/01/06 01:57:54;;;;;;;18.12;12.07;;;;;;;-0.05;89.14;99662.03;2070563;84;21133;-71
2021/01/06 02:00:56;;;;;;;19.75;12.13;;;;;;;-0.03;89.17;99653.64;2077039;84;21141;-71
2021/01/06 02:04:03;;;;;;;18.45;11.30;;;;;;;-0.01;89.21;99650.42;2075492;84;21167;-72
2021/01/06 02:07:10;;;;;;;17.75;11.28;;;;;;;0.03;89.26;99645.84;2070377;84;21101;-74
2021/01/06 02:10:22;;;;;;;16.17;10.15;;;;;;;0.09;89.23;99649.78;2078310;84;21149;-71
2021/01/06 02:13:44;;;;;;;15.03;9.98;;;;;;;0.13;89.21;99647.30;2073937;84;21540;-74
2021/01/06 02:17:06;;;;;;;14.58;9.88;;;;;;;0.17;89.15;99642.20;2074142;84;21175;-71
2021/01/06 02:20:18;;;;;;;17.67;11.68;;;;;;;0.18;89.02;99647.31;2076301;84;21113;-80
2021/01/06 02:23:21;;;;;;;18.35;11.53;;;;;;;0.18;89.01;99642.58;2075109;84;21528;-72
2021/01/06 02:26:26;;;;;;;14.35;9.95;;;;;;;0.19;89.07;99642.92;2091728;82;21535;-74
2021/01/06 02:29:28;;;;;;;14.83;10.50;;;;;;;0.20;89.06;99639.39;2077937;84;21165;-86
2021/01/06 02:32:30;;;;;;;15.00;9.98;;;;;;;0.21;89.01;99638.44;2077548;84;21111;-77
2021/01/06 02:35:31;;;;;;;14.28;9.88;;;;;;;0.19;88.90;99635.09;2073565;84;21188;-82
2021/01/06 02:38:33;;;;;;;14.93;10.28;;;;;;;0.19;88.89;99631.19;2048033;84;21192;-72
2021/01/06 02:41:37;;;;;;;14.90;10.15;;;;;;;0.20;88.87;99635.48;2077328;84;21114;-72
2021/01/06 02:44:39;;;;;;;17.07;11.25;;;;;;;0.21;88.87;99627.52;2078714;84;21190;-71
2021/01/06 02:47:42;;;;;;;17.87;10.93;;;;;;;0.22;88.90;99622.65;2079433;84;21164;-72
2021/01/06 02:50:46;;;;;;;19.27;11.18;;;;;;;0.25;88.93;99627.30;2075888;84;21157;-72
2021/01/06 02:53:55;;;;;;;16.17;10.43;;;;;;;0.26;88.91;99627.67;2048216;84;21171;-78
2021/01/06 02:56:59;;;;;;;17.17;10.18;;;;;;;0.22;88.83;99623.95;2077160;84;21189;-75
2021/01/06 03:00:01;;;;;;;14.87;10.28;;;;;;;0.21;88.79;99634.05;2076868;84;21170;-80
2021/01/06 03:03:07;;;;;;;16.97;11.08;;;;;;;0.22;88.80;99629.66;2076455;84;21108;-72
2021/01/06 03:06:19;;;;;;;16.62;11.33;;;;;;;0.25;88.86;99630.73;2077925;84;21599;-72
2021/01/06 03:09:34;;;;;;;20.00;12.25;;;;;;;0.26;88.84;99627.19;2080642;84;21159;-78
2021/01/06 03:12:35;;;;;;;18.60;11.90;;;;;;;0.27;88.85;99631.45;2078179;84;21167;-72
2021/01/06 03:15:37;;;;;;;16.73;11.20;;;;;;;0.27;88.80;99631.94;2070769;84;21154;-72
2021/01/06 03:18:39;;;;;;;17.07;11.50;;;;;;;0.23;88.74;99632.64;2079466;84;21235;-72
2021/01/06 03:21:43;;;;;;;17.10;10.93;;;;;;;0.19;88.68;99636.41;2077718;84;21136;-72
2021/01/06 03:24:53;;;;;;;21.17;11.65;;;;;;;0.15;88.67;99637.59;2077320;84;21198;-72
2021/01/06 03:27:57;;;;;;;17.65;10.98;;;;;;;0.14;88.75;99626.77;2078334;84;21204;-72
2021/01/06 03:31:01;;;;;;;19.27;12.18;;;;;;;0.17;88.84;99626.09;2050408;84;21138;-72
2021/01/06 03:34:25;;;;;;;19.82;12.30;;;;;;;0.21;88.85;99628.83;2084345;84;22569;-72
2021/01/06 03:37:37;;;;;;;17.50;11.38;;;;;;;0.26;88.93;99624.59;2079987;83;21497;-71
2021/01/06 03:40:40;;;;;;;19.65;12.37;;;;;;;0.29;88.91;99628.75;2079353;84;21615;-72
2021/01/06 03:43:47;;;;;;;14.53;10.40;;;;;;;0.28;88.79;99630.98;2075934;84;21209;-75
2021/01/06 03:47:26;;;;;;;16.32;11.15;;;;;;;0.25;88.73;99626.81;2082317;84;21141;-72
2021/01/06 03:50:43;;;;;;;13.78;9.85;;;;;;;0.26;88.74;99628.98;2100674;83;21125;-73
2021/01/06 03:53:48;;;;;;;18.85;10.35;;;;;;;0.25;88.70;99627.30;2094228;83;21152;-75
2021/01/06 03:56:52;;;;;;;16.48;9.60;;;;;;;0.25;88.79;99632.03;2102035;83;22896;-72
2021/01/06 03:59:55;;;;;;;15.25;10.08;;;;;;;0.33;88.91;99631.00;2098765;83;21582;-72
2021/01/06 04:02:59;;;;;;;15.45;11.08;;;;;;;0.37;88.88;99630.32;2093303;83;21578;-73
2021/01/06 04:06:03;;;;;;;17.50;10.90;;;;;;;0.44;88.90;99627.60;2070992;83;21606;-72
2021/01/06 04:09:09;;;;;;;17.23;10.72;;;;;;;0.50;88.88;99632.84;2096168;83;21534;-72
2021/01/06 04:12:16;;;;;;;17.67;10.40;;;;;;;0.52;88.82;99638.78;2069566;83;21127;-71
2021/01/06 04:15:18;;;;;;;19.17;11.43;;;;;;;0.54;88.72;99635.11;2077479;83;21137;-72
2021/01/06 04:18:20;;;;;;;19.02;12.43;;;;;;;0.54;88.65;99629.06;2100654;83;21133;-71
2021/01/06 04:21:21;;;;;;;16.95;10.50;;;;;;;0.55;88.56;99628.11;2098921;83;21125;-83
2021/01/06 04:24:23;;;;;;;20.85;11.90;;;;;;;0.57;88.58;99623.14;2093261;83;21146;-74
2021/01/06 04:27:24;;;;;;;17.10;10.95;;;;;;;0.56;88.46;99632.38;2096358;83;21117;-73
2021/01/06 04:30:34;;;;;;;16.73;10.88;;;;;;;0.50;88.31;99630.23;2093658;83;21169;-72
2021/01/06 04:33:44;;;;;;;16.20;10.38;;;;;;;0.41;88.27;99638.27;2099130;83;21110;-71
2021/01/06 04:36:45;;;;;;;15.10;9.33;;;;;;;0.42;88.47;99642.09;2105176;83;21228;-72
2021/01/06 04:39:47;;;;;;;14.10;9.03;;;;;;;0.38;88.37;99634.59;2094758;83;21612;-71
2021/01/06 04:42:49;;;;;;;13.90;9.00;;;;;;;0.35;88.40;99639.56;2100331;83;21245;-82
2021/01/06 04:46:25;;;;;;;14.18;8.90;;;;;;;0.38;88.47;99641.94;2094814;83;21208;-71
2021/01/06 04:49:44;;;;;;;15.55;9.58;;;;;;;0.39;88.43;99646.67;2069763;83;21597;-75
2021/01/06 04:53:09;;;;;;;17.30;10.15;;;;;;;0.41;88.41;99641.70;2030552;85;21185;-72
2021/01/06 04:56:34;;;;;;;20.55;9.98;;;;;;;0.44;88.45;99645.39;2059292;85;21546;-76
2021/01/06 05:00:04;;;;;;;17.35;10.72;;;;;;;0.48;88.47;99640.80;2060341;85;21146;-71
2021/01/06 05:03:44;;;;;;;14.68;9.80;;;;;;;0.49;88.48;99632.49;2047517;85;21204;-74
2021/01/06 05:06:54;;;;;;;10.63;6.47;;;;;;;0.46;88.31;99651.00;2056594;85;21531;-71
2021/01/06 05:10:18;;;;;;;12.45;7.92;;;;;;;0.37;88.15;99648.59;2062358;85;21145;-72
2021/01/06 05:13:28;;;;;;;13.83;8.28;;;;;;;0.33;88.27;99650.57;2060381;85;22269;-72
2021/01/06 05:16:40;;;;;;;14.30;8.85;;;;;;;0.35;88.40;99655.70;2053805;85;21236;-75
2021/01/06 05:19:46;;;;;;;15.15;9.90;;;;;;;0.41;88.47;99648.23;2062035;84;21213;-72
2021/01/06 05:22:47;;;;;;;16.85;10.78;;;;;;;0.40;88.36;99645.27;2058119;85;21584;-83
2021/01/06 05:25:50;;;;;;;15.13;10.00;;;;;;;0.38;88.26;99651.07;2060120;85;21141;-74
2021/01/06 05:28:51;;;;;;;13.78;9.45;;;;;;;0.32;88.21;99648.92;2064705;85;21585;-80
2021/01/06 05:31:53;;;;;;;15.68;9.43;;;;;;;0.35;88.33;99650.00;2058477;85;21181;-72
2021/01/06 05:35:11;;;;;;;16.40;10.58;;;;;;;0.37;88.38;99650.73;2060464;84;21156;-74
2021/01/06 05:38:12;;;;;;;18.82;11.08;;;;;;;0.39;88.33;99648.81;2049547;85;21541;-72
2021/01/06 05:41:14;;;;;;;19.62;11.50;;;;;;;0.40;88.27;99655.72;2024290;85;21140;-72
2021/01/06 05:44:15;;;;;;;18.75;12.07;;;;;;;0.44;88.27;99652.40;2059357;85;21201;-72
2021/01/06 05:47:25;;;;;;;23.90;13.40;;;;;;;0.51;88.46;99655.38;2052903;84;21266;-72
2021/01/06 05:50:34;;;;;;;19.00;12.73;;;;;;;0.62;88.53;99650.19;2098399;83;21166;-80
2021/01/06 05:53:47;;;;;;;17.95;12.53;;;;;;;0.69;88.44;99655.80;2098716;83;22386;-72
2021/01/06 05:57:00;;;;;;;18.90;11.55;;;;;;;0.63;88.10;99646.17;2098260;83;21175;-78
2021/01/06 06:00:45;;;;;;;16.20;10.53;;;;;;;0.59;88.00;99651.28;2101286;83;21534;-71
2021/01/06 06:04:01;;;;;;;21.87;12.50;;;;;;;0.52;87.88;99665.72;2075159;83;21245;-71
2021/01/06 06:07:17;;;;;;;17.20;10.55;;;;;;;0.36;87.70;99671.70;2077913;83;21232;-75
2021/01/06 06:11:01;;;;;;;20.82;11.40;;;;;;;0.33;87.96;99671.93;2095641;83;21157;-79
2021/01/06 06:14:36;;;;;;;21.93;12.80;;;;;;;0.39;88.20;99664.95;2099629;83;21112;-72
2021/01/06 06:18:19;;;;;;;23.05;13.80;;;;;;;0.44;88.22;99664.97;2099180;83;21568;-73
2021/01/06 06:21:38;;;;;;;36.17;18.50;;;;;;;0.48;88.11;99662.12;2106687;83;21204;-73
2021/01/06 06:24:50;;;;;;;31.77;16.65;;;;;;;0.50;88.08;99664.16;2095538;83;21122;-72
2021/01/06 06:28:03;;;;;;;25.97;14.78;;;;;;;0.49;88.00;99663.81;2100500;83;21652;-73
2021/01/06 06:31:30;;;;;;;21.30;13.10;;;;;;;0.49;87.97;99663.34;2096328;83;21173;-73
2021/01/06 06:34:39;;;;;;;19.30;11.40;;;;;;;0.53;87.97;99660.84;2098711;83;21221;-72
2021/01/06 06:37:58;;;;;;;19.60;12.07;;;;;;;0.50;87.78;99662.86;2087785;83;21165;-80
2021/01/06 06:41:05;;;;;;;18.60;12.25;;;;;;;0.47;87.68;99667.00;2102287;83;21497;-72
2021/01/06 06:44:31;;;;;;;20.00;13.20;;;;;;;0.46;87.77;99670.58;2089357;83;21139;-70
2021/01/06 06:48:12;;;;;;;19.48;12.00;;;;;;;0.40;87.72;99673.98;2106649;83;21188;-70
2021/01/06 06:51:40;;;;;;;18.90;11.43;;;;;;;0.30;87.58;99677.38;2070208;84;21193;-69
2021/01/06 06:54:59;;;;;;;23.10;11.80;;;;;;;0.15;87.56;99681.94;2067223;84;22302;-71
2021/01/06 06:58:25;;;;;;;17.55;11.05;;;;;;;0.08;87.68;99689.36;2071725;84;21628;-72
2021/01/06 07:01:41;;;;;;;22.85;12.35;;;;;;;0.04;87.81;99691.84;2072372;84;21153;-76
2021/01/06 07:04:56;;;;;;;20.10;12.78;;;;;;;0.05;87.91;99701.80;2071163;84;21125;-77
2021/01/06 07:08:04;;;;;;;22.22;13.05;;;;;;;0.03;87.96;99698.45;2073913;84;21549;-70
2021/01/06 07:11:29;;;;;;;22.77;13.05;;;;;;;0.05;88.08;99695.27;2073406;84;21131;-68
2021/01/06 07:14:35;;;;;;;21.30;12.30;;;;;;;0.03;87.99;99702.38;2073452;84;21181;-71
2021/01/06 07:17:41;;;;;;;24.00;12.50;;;;;;;-0.01;87.99;99699.98;2070520;84;21577;-71
2021/01/06 07:20:44;;;;;;;22.20;12.18;;;;;;;-0.02;88.00;99698.80;2073306;84;21197;-71
2021/01/06 07:23:51;;;;;;;21.52;11.45;;;;;;;0.03;88.11;99695.84;2071813;84;21213;-71
2021/01/06 07:26:58;;;;;;;20.85;12.47;;;;;;;0.10;88.16;99696.61;2074884;84;21173;-71
2021/01/06 07:30:00;;;;;;;19.57;11.93;;;;;;;0.20;88.18;99700.71;2069317;84;21449;-70
2021/01/06 07:33:34;;;;;;;21.30;12.80;;;;;;;0.25;88.06;99701.66;2074073;84;21126;-71
2021/01/06 07:36:37;;;;;;;22.37;13.13;;;;;;;0.30;88.01;99695.17;2057672;83;21398;-70
2021/01/06 07:39:38;;;;;;;23.25;12.50;;;;;;;0.38;88.00;99692.84;2083289;83;21381;-70
2021/01/06 07:42:44;;;;;;;21.85;11.80;;;;;;;0.47;87.96;99691.80;2074826;84;21164;-71
2021/01/06 07:46:00;;;;;;;19.95;12.18;;;;;;;0.46;87.55;99679.23;2075230;84;21204;-70
2021/01/06 07:49:13;;;;;;;19.27;11.33;;;;;;;0.41;87.51;99675.64;2078399;83;23321;-70
2021/01/06 07:52:29;;;;;;;21.55;12.65;;;;;;;0.49;87.54;99671.65;2096328;83;21185;-70
2021/01/06 07:56:02;;;;;;;21.93;11.88;;;;;;;0.61;87.63;99675.47;2082795;83;21237;-71
2021/01/06 07:59:09;;;;;;;21.85;12.93;;;;;;;0.78;87.64;99676.00;2102181;83;21515;-71
2021/01/06 08:02:30;;;;;;;21.10;12.65;;;;;;;1.03;87.85;99677.59;2095021;83;21121;-72
2021/01/06 08:05:34;;;;;;;;;;;;;;;1.31;87.98;99687.59;2100315;83;21109;-71
2021/01/06 08:08:51;;;;;;;22.95;12.15;;;;;;;1.61;87.94;99680.95;2092114;83;20202;-71
2021/01/06 08:11:52;;;;;;;21.65;12.23;;;;;;;1.94;87.82;99693.16;2099133;82;21590;-74
2021/01/06 08:15:22;;;;;;;18.60;10.43;;;;;;;2.37;87.86;99683.64;2101555;83;21138;-71
2021/01/06 08:18:38;;;;;;;21.60;11.50;;;;;;;2.80;87.58;99687.96;2098861;83;21585;-72
2021/01/06 08:22:23;;;;;;;19.90;12.25;;;;;;;3.22;87.16;99691.39;2097442;83;21088;-70
2021/01/06 08:25:31;;;;;;;18.52;11.20;;;;;;;3.44;86.57;99689.58;2095464;83;21571;-70
2021/01/06 08:28:33;;;;;;;20.27;11.90;;;;;;;3.73;86.17;99692.30;2099209;83;21147;-71
2021/01/06 08:31:37;;;;;;;20.37;12.55;;;;;;;3.94;85.84;99688.27;2097507;83;21106;-73
2021/01/06 08:34:41;;;;;;;21.55;12.20;;;;;;;4.29;85.55;99687.79;2102808;83;21166;-73
2021/01/06 08:37:45;;;;;;;18.62;12.40;;;;;;;4.43;85.29;99682.61;2101242;83;21122;-75
2021/01/06 08:40:46;;;;;;;18.10;11.93;;;;;;;4.64;84.97;99685.09;2093281;83;21154;-72
2021/01/06 08:43:49;;;;;;;22.00;12.37;;;;;;;4.67;84.31;99675.15;2098483;83;21182;-73
2021/01/06 08:47:03;;;;;;;23.75;14.13;;;;;;;4.58;83.66;99685.16;2096838;83;21192;-71
2021/01/06 08:50:29;;;;;;;21.15;11.85;;;;;;;4.51;83.48;99687.19;2096619;83;21830;-75
2021/01/06 08:53:40;;;;;;;18.17;10.55;;;;;;;4.37;83.07;99681.86;2088385;83;21181;-72
2021/01/06 08:56:41;;;;;;;19.40;11.50;;;;;;;4.27;83.34;99679.20;2095781;83;21165;-71
2021/01/06 08:59:43;;;;;;;20.40;11.60;;;;;;;4.18;82.87;99680.03;2092879;83;21648;-77
2021/01/06 09:02:52;;;;;;;23.80;13.10;;;;;;;4.06;82.91;99680.64;2093012;83;21085;-73
2021/01/06 09:06:17;;;;;;;19.27;11.88;;;;;;;3.92;82.56;99686.28;2099091;83;21089;-77
2021/01/06 09:09:33;;;;;;;23.75;13.10;;;;;;;3.93;82.60;99686.13;2091966;83;21121;-74
2021/01/06 09:12:59;;;;;;;23.20;13.62;;;;;;;4.10;83.02;99693.84;2114019;82;21098;-78
2021/01/06 09:16:15;;;;;;;23.05;13.78;;;;;;;4.19;82.55;99686.45;2149868;80;21605;-72
2021/01/06 09:19:41;;;;;;;24.37;13.28;;;;;;;4.21;82.57;99683.70;2136157;80;21169;-73
2021/01/06 09:22:44;;;;;;;24.02;13.45;;;;;;;4.18;82.05;99683.97;2156690;81;21188;-72
2021/01/06 09:25:46;;;;;;;22.05;12.82;;;;;;;4.02;81.72;99685.31;2154086;81;22381;-73
2021/01/06 09:28:55;;;;;;;26.12;14.10;;;;;;;3.71;81.40;99683.23;2154486;81;21148;-80
2021/01/06 09:32:00;;;;;;;22.37;13.13;;;;;;;3.46;81.85;99684.52;2152799;80;21215;-71
2021/01/06 09:35:10;;;;;;;23.60;13.30;;;;;;;3.37;82.23;99682.69;2115539;80;21509;-72
2021/01/06 09:38:25;;;;;;;23.30;12.95;;;;;;;3.26;82.10;99682.29;2150892;80;21109;-79
2021/01/06 09:41:32;;;;;;;21.15;13.80;;;;;;;3.17;82.33;99687.50;2153998;81;21608;-74
2021/01/06 09:44:34;;;;;;;25.35;14.33;;;;;;;3.02;82.11;99669.48;2156906;81;21109;-70
2021/01/06 09:47:38;;;;;;;27.15;13.62;;;;;;;2.88;82.24;99667.20;2153544;81;21176;-70
2021/01/06 09:50:48;;;;;;;27.85;15.50;;;;;;;2.73;82.01;99669.77;2123059;82;21171;-70
2021/01/06 09:53:54;;;;;;;26.90;15.00;;;;;;;2.66;82.59;99671.59;2131395;82;21651;-77
2021/01/06 09:56:56;;;;;;;29.35;15.08;;;;;;;2.61;82.47;99669.00;2113686;82;21172;-81
2021/01/06 10:00:02;;;;;;;27.67;15.40;;;;;;;2.50;82.41;99672.50;2110074;82;21172;-70
2021/01/06 10:03:06;;;;;;;24.82;14.78;;;;;;;2.40;82.49;99668.98;2127008;82;21180;-80
2021/01/06 10:06:32;;;;;;;29.10;15.98;;;;;;;2.31;82.51;99668.41;2128611;82;21191;-69
2021/01/06 10:09:45;;;;;;;29.05;15.83;;;;;;;2.20;82.62;99670.12;2127060;81;21113;-71
2021/01/06 10:13:04;;;;;;;26.85;16.95;;;;;;;2.09;82.85;99666.23;2128325;82;21542;-70
2021/01/06 10:16:14;;;;;;;30.10;17.80;;;;;;;1.99;83.06;99669.23;2125399;82;21176;-68
2021/01/06 10:19:37;;;;;;;27.73;16.12;;;;;;;1.89;83.15;99668.31;2130666;82;21128;-69
2021/01/06 10:22:52;;;;;;;27.20;16.45;;;;;;;1.84;83.38;99660.00;2124573;82;21545;-74
2021/01/06 10:26:22;;;;;;;28.30;16.15;;;;;;;1.75;83.36;99658.46;2122143;82;21192;-68
2021/01/06 10:29:41;;;;;;;26.68;16.15;;;;;;;1.69;83.38;99652.41;2115384;82;21538;-69
2021/01/06 10:32:50;;;;;;;25.25;16.07;;;;;;;1.62;83.43;99650.39;2120531;82;21136;-68
2021/01/06 10:36:06;;;;;;;31.45;16.48;;;;;;;1.52;83.41;99651.58;2121590;82;21133;-69
2021/01/06 10:39:24;;;;;;;31.17;17.70;;;;;;;1.49;83.72;99653.13;2129243;82;21119;-69
2021/01/06 10:42:32;;;;;;;29.27;17.92;;;;;;;1.46;83.80;99654.67;2110418;82;21619;-69
2021/01/06 10:45:40;;;;;;;27.50;16.70;;;;;;;1.40;83.73;99651.23;2127073;82;21540;-70
2021/01/06 10:48:45;;;;;;;24.05;15.25;;;;;;;1.33;83.84;99645.67;2129436;82;21548;-70
2021/01/06 10:52:04;;;;;;;28.77;15.93;;;;;;;1.34;84.12;99640.78;2164464;80;21113;-69
2021/01/06 10:55:11;;;;;;;29.20;14.75;;;;;;;1.42;84.31;99641.50;2178151;80;21148;-70
2021/01/06 10:58:44;;;;;;;26.02;15.05;;;;;;;1.54;84.33;99637.44;2166745;80;21203;-71
2021/01/06 11:02:13;;;;;;;26.45;15.85;;;;;;;1.51;84.09;99629.83;2173320;80;21116;-70
2021/01/06 11:09:10;;;;;;;28.42;15.63;;;;;;;1.51;84.19;99623.30;2023327;85;21157;-70
2021/01/06 11:12:33;;;;;;;27.17;15.88;;;;;;;1.51;84.13;99621.16;2007130;85;21207;-70
2021/01/06 11:16:02;;;;;;;27.35;15.13;;;;;;;1.39;84.12;99626.06;2070460;84;21202;-70
2021/01/06 11:19:04;;;;;;;30.10;16.05;;;;;;;1.39;84.40;99623.45;2067971;84;21184;-70
2021/01/06 11:22:32;;;;;;;25.30;14.75;;;;;;;1.42;84.58;99625.81;2074147;84;21164;-70
2021/01/06 11:25:50;;;;;;;26.25;13.85;;;;;;;1.39;84.47;99619.04;2071596;84;21572;-69
2021/01/06 11:29:26;;;;;;;27.15;15.93;;;;;;;1.33;84.43;99619.05;2070150;84;21154;-70
2021/01/06 11:32:32;;;;;;;26.65;15.05;;;;;;;1.30;84.63;99611.92;2076252;84;21181;-70
2021/01/06 11:35:53;;;;;;;25.17;14.80;;;;;;;1.25;84.69;99601.81;2072995;84;21585;-70
2021/01/06 11:39:01;;;;;;;27.32;16.45;;;;;;;1.28;84.84;99609.91;2074998;84;21511;-69
2021/01/06 11:42:16;;;;;;;27.20;15.00;;;;;;;1.29;84.88;99608.45;2074017;84;21120;-69
2021/01/06 11:45:23;;;;;;;27.00;15.28;;;;;;;1.36;84.96;99608.00;2070198;84;21129;-70
2021/01/06 11:48:32;;;;;;;27.27;15.28;;;;;;;1.44;85.02;99605.14;2072119;84;21132;-71
2021/01/06 11:51:34;;;;;;;23.87;14.13;;;;;;;1.48;84.99;99604.41;2066886;84;21106;-71
2021/01/06 11:54:38;;;;;;;27.73;16.32;;;;;;;1.50;84.87;99598.59;2056422;84;21582;-72
2021/01/06 11:58:13;;;;;;;28.00;15.53;;;;;;;1.46;84.84;99594.55;2047625;84;21109;-70
2021/01/06 12:01:32;;;;;;;28.38;16.20;;;;;;;1.47;84.93;99587.08;2071682;84;21187;-71
2021/01/06 12:05:04;;;;;;;30.68;16.55;;;;;;;1.52;85.02;99590.98;2069941;84;21177;-70
2021/01/06 12:08:31;;;;;;;;;;;;;;;1.56;85.03;99587.64;2077725;84;22327;-71
2021/01/06 12:12:01;;;;;;;29.37;15.63;;;;;;;1.58;84.89;99592.28;2036139;84;20145;-72
2021/01/06 12:15:43;;;;;;;28.27;15.55;;;;;;;1.63;85.07;99590.11;2063119;84;21141;-72
2021/01/06 12:19:15;;;;;;;28.62;16.05;;;;;;;1.78;85.17;99580.22;2069390;84;21135;-71
2021/01/06 12:22:18;;;;;;;;;;;;;;;1.92;85.08;99577.31;2073092;84;21221;-71
2021/01/06 12:25:31;;;;;;;29.92;17.15;;;;;;;1.96;85.01;99578.72;2072982;84;20149;-71
2021/01/06 12:28:53;;;;;;;27.13;14.93;;;;;;;1.96;84.89;99569.55;2053804;84;21098;-71
2021/01/06 12:32:19;;;;;;;35.23;19.92;;;;;;;1.96;84.71;99567.42;2063426;84;21217;-71
2021/01/06 12:35:35;;;;;;;31.33;17.57;;;;;;;1.89;84.63;99571.51;2075297;84;21530;-71
2021/01/06 12:38:38;;;;;;;34.58;19.48;;;;;;;1.78;84.49;99557.98;2066942;84;21137;-74
2021/01/06 12:41:51;;;;;;;33.83;18.60;;;;;;;1.77;84.74;99555.86;2069917;84;22320;-75
2021/01/06 12:45:16;;;;;;;33.48;18.70;;;;;;;1.78;84.80;99565.83;2064861;84;21570;-72
2021/01/06 12:48:22;;;;;;;35.15;19.98;;;;;;;1.81;84.87;99563.45;2063165;84;21123;-74
2021/01/06 12:51:32;;;;;;;35.78;20.05;;;;;;;1.68;84.63;99560.50;2062699;84;21221;-74
2021/01/06 12:54:46;;;;;;;38.15;20.85;;;;;;;1.63;84.81;99561.34;2059927;84;22241;-74
2021/01/06 12:58:02;;;;;;;30.17;16.52;;;;;;;1.62;84.89;99561.00;2040636;84;21165;-75
2021/01/06 13:01:20;;;;;;;31.25;18.12;;;;;;;1.61;85.02;99558.52;2067194;84;21642;-73
2021/01/06 13:04:33;;;;;;;31.77;18.50;;;;;;;1.55;84.88;99568.99;2062278;84;21131;-74
2021/01/06 13:07:37;;;;;;;33.53;19.52;;;;;;;1.59;85.16;99572.19;2047678;84;21156;-77
2021/01/06 13:10:42;;;;;;;30.92;16.97;;;;;;;1.65;85.28;99564.67;2042255;85;21566;-73
2021/01/06 13:13:46;;;;;;;41.73;21.37;;;;;;;1.69;85.27;99561.32;2020355;85;21165;-74
2021/01/06 13:17:17;;;;;;;41.58;23.32;;;;;;;1.69;85.11;99558.25;2038203;85;21200;-73
2021/01/06 13:20:45;;;;;;;43.50;24.77;;;;;;;1.63;85.01;99561.34;2039140;85;21086;-75
2021/01/06 13:24:00;;;;;;;43.78;24.20;;;;;;;1.63;85.21;99555.28;2040026;85;21595;-73
2021/01/06 13:27:06;;;;;;;51.85;25.12;;;;;;;1.63;85.27;99563.12;2017867;85;21193;-74
2021/01/06 13:30:18;;;;;;;44.90;25.48;;;;;;;1.62;85.31;99562.30;2037057;85;21235;-70
2021/01/06 13:33:44;;;;;;;48.17;25.45;;;;;;;1.61;85.31;99566.36;2037408;85;21138;-70
2021/01/06 13:36:57;;;;;;;46.98;23.45;;;;;;;1.65;85.50;99572.52;2014436;85;21155;-77
2021/01/06 13:40:13;;;;;;;47.78;24.02;;;;;;;1.68;85.57;99571.44;2041620;85;22596;-72
2021/01/06 13:43:45;;;;;;;42.35;23.45;;;;;;;1.74;85.61;99573.08;2038401;85;21141;-71
2021/01/06 13:46:57;;;;;;;38.38;22.17;;;;;;;1.72;85.49;99578.93;2039570;85;21151;-71
2021/01/06 13:50:03;;;;;;;34.38;19.37;;;;;;;1.67;85.56;99578.46;2038028;85;21243;-72
2021/01/06 13:53:35;;;;;;;31.95;20.37;;;;;;;1.61;85.57;99580.27;2035649;85;21742;-76
2021/01/06 13:56:57;;;;;;;35.83;20.57;;;;;;;1.51;85.56;99578.84;2042246;85;21249;-75
2021/01/06 14:00:27;;;;;;;36.77;19.73;;;;;;;1.41;85.67;99577.08;2043432;85;21204;-70
2021/01/06 14:03:40;;;;;;;44.40;23.62;;;;;;;1.40;85.82;99574.94;2040069;85;21191;-71
2021/01/06 14:07:06;;;;;;;38.10;19.00;;;;;;;1.37;85.88;99576.98;2009072;86;21147;-73
2021/01/06 14:10:39;;;;;;;38.33;19.77;;;;;;;1.33;85.83;99579.84;2046776;84;21247;-68
2021/01/06 14:14:16;;;;;;;33.38;17.92;;;;;;;1.31;85.93;99577.81;2062195;84;21188;-71
2021/01/06 14:18:00;;;;;;;28.17;16.50;;;;;;;1.29;85.97;99580.19;2066175;84;21103;-73
2021/01/06 14:21:25;;;;;;;26.00;15.40;;;;;;;1.24;86.02;99583.18;2051551;84;21184;-68
2021/01/06 14:24:28;;;;;;;30.27;16.40;;;;;;;1.19;86.05;99581.39;2034209;84;21178;-70
2021/01/06 14:27:45;;;;;;;34.92;16.97;;;;;;;1.17;86.17;99585.91;2065763;84;21178;-69
2021/01/06 14:31:21;;;;;;;25.32;16.02;;;;;;;1.14;86.18;99586.14;2045387;84;21234;-69
2021/01/06 14:34:32;;;;;;;34.35;17.23;;;;;;;1.13;86.20;99585.80;2058745;84;21182;-70
2021/01/06 14:38:03;;;;;;;30.97;17.42;;;;;;;1.16;86.50;99588.17;2063050;84;21191;-69
2021/01/06 14:41:25;;;;;;;;;;;;;;;1.14;86.34;99585.32;2067158;84;21511;-69
2021/01/06 14:45:27;;;;;;;47.85;21.87;;;;;;;1.07;86.28;99583.64;2062372;84;20189;-70
2021/01/06 14:48:52;;;;;;;40.23;20.48;;;;;;;1.00;86.47;99576.77;2063976;84;22211;-69
2021/01/06 14:52:25;;;;;;;36.40;19.35;;;;;;;0.95;86.53;99576.28;2063334;84;21182;-75
2021/01/06 14:55:32;;;;;;;32.25;17.67;;;;;;;0.94;86.51;99581.16;2066181;84;21509;-67
2021/01/06 14:58:59;;;;;;;28.98;16.75;;;;;;;0.94;86.55;99579.86;2063293;84;21193;-71
2021/01/06 15:02:27;;;;;;;35.28;18.95;;;;;;;0.96;86.53;99579.72;2066599;84;21139;-79